Time;durP1;ratioP1;P1;durP2;ratioP2;P2;SDS_P1;SDS_P2;PMS_P1;PMS_P2;Temp;Humidity;BMP_temperature;BMP_pressure;BME280_temperature;BME280_humidity;BME280_pressure;Samples;Min_cycle;Max_cycle;Signal;HPM_P1;HPM_P2
2020/12/11 00:01:46;;;;;;;41.53;24.83;;;2.60;55.00;;;;;;5031672;28;20438;-73
2020/12/11 00:04:12;;;;;;;39.33;23.50;;;2.70;55.80;;;;;;5031503;28;20394;-73
2020/12/11 00:06:37;;;;;;;46.33;24.60;;;2.60;55.50;;;;;;5033735;28;20415;-74
2020/12/11 00:09:03;;;;;;;37.33;22.93;;;2.60;56.90;;;;;;5051481;28;20432;-75
2020/12/11 00:11:30;;;;;;;39.45;23.80;;;2.70;55.10;;;;;;5051513;28;20382;-73
2020/12/11 00:13:56;;;;;;;37.50;22.63;;;2.70;55.30;;;;;;5042995;28;20570;-73
2020/12/11 00:16:22;;;;;;;38.65;22.65;;;2.80;55.40;;;;;;5031162;28;20541;-73
2020/12/11 00:18:47;;;;;;;36.13;22.47;;;2.70;55.70;;;;;;5031520;28;20478;-74
2020/12/11 00:21:13;;;;;;;38.22;22.40;;;2.70;55.60;;;;;;5031306;28;20383;-73
2020/12/11 00:23:38;;;;;;;37.45;23.20;;;2.70;55.70;;;;;;5031107;28;20426;-73
2020/12/11 00:26:04;;;;;;;37.33;22.80;;;2.70;55.50;;;;;;5031042;28;20383;-73
2020/12/11 00:28:30;;;;;;;39.27;22.30;;;2.70;55.50;;;;;;5030153;28;20461;-72
2020/12/11 00:30:57;;;;;;;36.67;22.25;;;2.70;56.30;;;;;;5042140;28;20389;-73
2020/12/11 00:33:23;;;;;;;36.50;22.60;;;2.60;56.90;;;;;;5050732;28;20393;-72
2020/12/11 00:35:50;;;;;;;33.73;21.40;;;2.50;57.10;;;;;;5050834;28;20971;-74
2020/12/11 00:38:15;;;;;;;34.40;21.58;;;2.50;58.60;;;;;;5051278;28;20386;-73
2020/12/11 00:40:41;;;;;;;32.03;20.05;;;2.50;57.60;;;;;;5050963;28;20436;-73
2020/12/11 00:43:06;;;;;;;34.10;21.37;;;2.60;56.30;;;;;;5050674;28;20381;-73
2020/12/11 00:45:33;;;;;;;32.00;20.87;;;2.60;56.50;;;;;;5050203;28;20406;-74
2020/12/11 00:47:58;;;;;;;31.90;20.27;;;2.70;56.50;;;;;;5050998;28;20467;-74
2020/12/11 00:50:24;;;;;;;31.33;20.43;;;2.70;55.60;;;;;;5050164;28;20389;-73
2020/12/11 00:52:50;;;;;;;33.33;19.40;;;2.70;55.40;;;;;;5050722;28;20396;-73
2020/12/11 00:55:21;;;;;;;28.77;19.17;;;2.80;56.50;;;;;;5050710;28;20463;-74
2020/12/11 00:57:47;;;;;;;31.08;19.23;;;2.80;55.00;;;;;;5050699;28;20419;-74
2020/12/11 01:00:14;;;;;;;31.13;19.90;;;2.80;55.80;;;;;;5033813;28;20395;-74
2020/12/11 01:02:40;;;;;;;27.88;18.92;;;2.90;55.00;;;;;;5030528;28;20387;-74
2020/12/11 01:05:06;;;;;;;29.40;18.98;;;2.90;55.60;;;;;;5030489;28;20383;-74
2020/12/11 01:07:31;;;;;;;30.40;19.20;;;2.90;55.00;;;;;;5039939;28;20918;-73
2020/12/11 01:09:57;;;;;;;32.70;19.40;;;2.90;54.40;;;;;;5049161;28;20397;-73
2020/12/11 01:12:23;;;;;;;33.50;19.20;;;2.90;55.20;;;;;;5050323;28;20397;-72
2020/12/11 01:14:48;;;;;;;31.50;18.80;;;3.00;54.30;;;;;;5036970;28;20399;-73
2020/12/11 01:17:14;;;;;;;29.70;19.67;;;3.00;53.80;;;;;;5030297;28;20387;-73
2020/12/11 01:19:39;;;;;;;29.77;19.73;;;3.00;53.80;;;;;;5030322;28;20394;-74
2020/12/11 01:22:05;;;;;;;32.77;20.57;;;2.90;55.20;;;;;;5030545;28;20872;-73
2020/12/11 01:24:34;;;;;;;31.10;21.03;;;2.80;55.70;;;;;;5029974;28;20876;-72
2020/12/11 01:26:59;;;;;;;27.92;18.80;;;2.90;54.70;;;;;;5030052;28;20390;-72
2020/12/11 01:29:25;;;;;;;32.43;19.67;;;2.90;55.40;;;;;;5029778;28;20407;-72
2020/12/11 01:31:58;;;;;;;29.83;19.80;;;2.90;55.60;;;;;;5029976;28;20881;-73
2020/12/11 01:34:24;;;;;;;31.15;20.15;;;3.00;54.20;;;;;;5029618;28;20423;-73
2020/12/11 01:36:49;;;;;;;29.30;17.95;;;2.90;55.60;;;;;;5044494;28;20374;-73
2020/12/11 01:39:15;;;;;;;32.08;20.80;;;2.90;54.20;;;;;;5049316;28;20389;-73
2020/12/11 01:41:40;;;;;;;31.02;19.65;;;2.90;54.60;;;;;;5050244;28;20381;-74
2020/12/11 01:44:07;;;;;;;30.97;19.70;;;2.90;55.00;;;;;;5042998;28;20427;-73
2020/12/11 01:46:41;;;;;;;29.42;20.08;;;2.90;55.30;;;;;;5030008;28;20391;-74
2020/12/11 01:49:08;;;;;;;31.03;20.30;;;2.90;55.30;;;;;;5029701;28;20760;-75
2020/12/11 01:51:35;;;;;;;29.75;19.38;;;2.90;55.20;;;;;;5029786;28;20485;-73
2020/12/11 01:54:00;;;;;;;29.65;19.48;;;2.90;54.60;;;;;;5030168;28;20398;-74
2020/12/11 01:56:29;;;;;;;32.70;20.43;;;3.00;55.10;;;;;;5029697;28;20414;-73
2020/12/11 01:59:02;;;;;;;30.08;19.77;;;2.90;55.20;;;;;;5029753;28;20394;-74
2020/12/11 02:01:29;;;;;;;27.40;18.40;;;2.90;56.20;;;;;;5029730;28;20395;-74
2020/12/11 02:03:56;;;;;;;30.13;19.33;;;2.90;56.80;;;;;;5029381;28;20418;-73
2020/12/11 02:06:22;;;;;;;28.60;19.38;;;2.90;56.70;;;;;;5030132;28;20789;-73
2020/12/11 02:08:48;;;;;;;26.88;17.88;;;3.00;55.20;;;;;;5049103;28;20447;-74
2020/12/11 02:11:34;;;;;;;29.17;19.40;;;2.90;55.90;;;;;;5049420;28;20417;-73
2020/12/11 02:13:59;;;;;;;29.13;19.45;;;2.90;55.60;;;;;;5047872;28;20404;-74
2020/12/11 02:16:25;;;;;;;28.67;18.30;;;2.90;55.70;;;;;;5033620;28;20755;-74
2020/12/11 02:18:50;;;;;;;26.50;18.13;;;3.00;55.60;;;;;;5028326;28;20734;-74
2020/12/11 02:21:16;;;;;;;27.67;18.38;;;2.90;55.80;;;;;;5029459;28;20379;-74
2020/12/11 02:23:45;;;;;;;29.60;19.50;;;2.90;55.50;;;;;;5029423;28;20864;-74
2020/12/11 02:26:13;;;;;;;27.40;18.85;;;2.90;56.00;;;;;;5028251;28;20391;-75
2020/12/11 02:28:39;;;;;;;30.35;19.30;;;2.80;57.30;;;;;;5029920;28;20412;-75
2020/12/11 02:31:04;;;;;;;26.40;17.67;;;2.70;56.90;;;;;;5029677;28;20405;-73
2020/12/11 02:33:31;;;;;;;30.55;19.80;;;2.80;56.60;;;;;;5029213;28;20386;-75
2020/12/11 02:35:56;;;;;;;32.20;19.50;;;2.60;57.80;;;;;;5036487;28;20386;-74
2020/12/11 02:38:23;;;;;;;32.95;19.42;;;2.60;59.10;;;;;;5049113;28;20394;-73
2020/12/11 02:40:55;;;;;;;29.80;19.20;;;2.40;58.90;;;;;;5049250;28;20397;-75
2020/12/11 02:43:21;;;;;;;27.60;18.27;;;2.40;60.10;;;;;;5041669;28;20574;-73
2020/12/11 02:45:49;;;;;;;27.90;18.55;;;2.40;59.10;;;;;;5029168;28;20881;-73
2020/12/11 02:48:15;;;;;;;26.15;18.27;;;2.40;58.90;;;;;;5029245;28;20435;-72
2020/12/11 02:50:41;;;;;;;28.73;18.60;;;2.30;60.30;;;;;;5029738;28;20458;-74
2020/12/11 02:53:07;;;;;;;26.92;18.00;;;2.30;59.30;;;;;;5033024;28;20419;-74
2020/12/11 02:55:34;;;;;;;29.27;18.63;;;2.30;60.00;;;;;;5033108;28;20855;-73
2020/12/11 02:57:59;;;;;;;28.10;18.60;;;2.30;60.30;;;;;;5035359;28;20403;-73
2020/12/11 03:00:25;;;;;;;29.60;19.45;;;2.20;61.10;;;;;;5033036;28;20395;-73
2020/12/11 03:02:51;;;;;;;30.63;18.38;;;2.20;60.80;;;;;;5032890;28;20383;-74
2020/12/11 03:05:17;;;;;;;29.60;18.87;;;2.20;61.10;;;;;;5032846;28;20410;-73
2020/12/11 03:07:42;;;;;;;32.50;19.00;;;2.30;60.60;;;;;;5043591;28;20499;-73
2020/12/11 03:10:08;;;;;;;27.13;18.27;;;2.20;60.80;;;;;;5051380;28;20389;-72
2020/12/11 03:12:33;;;;;;;27.63;18.20;;;2.20;61.30;;;;;;5036629;28;20892;-74
2020/12/11 03:14:59;;;;;;;28.90;18.20;;;2.20;61.00;;;;;;5032428;28;20379;-73
2020/12/11 03:17:24;;;;;;;25.80;17.60;;;2.20;61.90;;;;;;5032336;28;20406;-73
2020/12/11 03:19:50;;;;;;;28.30;18.60;;;2.20;60.80;;;;;;5032300;28;20441;-73
2020/12/11 03:22:16;;;;;;;30.73;18.80;;;2.10;61.90;;;;;;5032717;28;20388;-74
2020/12/11 03:24:42;;;;;;;26.58;18.00;;;2.10;62.60;;;;;;5032192;28;20391;-73
2020/12/11 03:27:07;;;;;;;26.20;17.83;;;2.10;62.60;;;;;;5032394;28;20478;-74
2020/12/11 03:29:33;;;;;;;28.43;17.93;;;2.10;62.00;;;;;;5032621;28;20399;-73
2020/12/11 03:31:59;;;;;;;26.97;18.70;;;2.10;62.60;;;;;;5032313;28;20409;-74
2020/12/11 03:34:24;;;;;;;25.48;16.70;;;2.20;60.80;;;;;;5032082;28;20419;-71
2020/12/11 03:36:50;;;;;;;26.63;17.80;;;2.30;59.40;;;;;;5046678;28;20460;-75
2020/12/11 03:39:15;;;;;;;24.15;16.92;;;2.30;59.30;;;;;;5048623;28;20391;-73
2020/12/11 03:41:42;;;;;;;25.40;17.60;;;2.30;59.80;;;;;;5031866;28;20510;-74
2020/12/11 03:44:08;;;;;;;24.63;17.05;;;2.40;59.50;;;;;;5031744;28;20474;-72
2020/12/11 03:46:34;;;;;;;27.13;17.60;;;2.50;59.40;;;;;;5032049;28;20462;-73
2020/12/11 03:49:02;;;;;;;24.95;17.17;;;2.50;58.00;;;;;;5038419;28;20410;-73
2020/12/11 03:51:27;;;;;;;26.27;17.35;;;2.70;57.00;;;;;;5031905;28;20888;-74
2020/12/11 03:53:53;;;;;;;25.70;16.93;;;2.70;56.90;;;;;;5032089;28;20458;-74
2020/12/11 03:56:19;;;;;;;25.57;17.40;;;2.70;56.20;;;;;;5031767;28;20386;-74
2020/12/11 03:58:45;;;;;;;24.83;16.50;;;2.70;56.00;;;;;;5031681;28;20414;-73
2020/12/11 04:01:13;;;;;;;25.58;17.13;;;2.80;56.00;;;;;;5031668;28;20387;-74
2020/12/11 04:03:38;;;;;;;23.55;16.85;;;2.80;55.60;;;;;;5031160;28;20408;-74
2020/12/11 04:06:12;;;;;;;25.40;17.37;;;2.80;55.80;;;;;;5031499;28;20402;-73
2020/12/11 04:08:38;;;;;;;23.63;16.08;;;2.90;54.80;;;;;;5049788;28;20405;-74
2020/12/11 04:11:11;;;;;;;26.33;17.00;;;2.90;54.60;;;;;;5051547;28;20387;-73
2020/12/11 04:13:37;;;;;;;24.45;16.73;;;3.00;54.00;;;;;;5051501;28;20719;-73
2020/12/11 04:16:03;;;;;;;25.50;16.58;;;3.00;54.20;;;;;;5052346;28;20459;-75
2020/12/11 04:18:29;;;;;;;25.10;16.40;;;2.90;55.00;;;;;;5036033;28;20795;-75
2020/12/11 04:20:57;;;;;;;25.40;16.50;;;3.00;54.50;;;;;;5034249;28;20426;-73
2020/12/11 04:23:24;;;;;;;24.85;16.00;;;3.00;53.80;;;;;;5037406;28;20479;-74
2020/12/11 04:25:50;;;;;;;25.73;16.17;;;3.10;53.30;;;;;;5037693;28;20399;-74
2020/12/11 04:28:16;;;;;;;21.88;15.43;;;3.00;52.60;;;;;;5037386;28;20406;-74
2020/12/11 04:30:41;;;;;;;24.13;17.00;;;3.00;53.20;;;;;;5037348;28;20410;-73
2020/12/11 04:33:07;;;;;;;23.40;15.77;;;3.00;54.00;;;;;;5035466;28;20398;-73
2020/12/11 04:35:33;;;;;;;22.80;16.20;;;2.90;54.70;;;;;;5041104;28;20488;-75
2020/12/11 04:37:59;;;;;;;25.35;17.27;;;3.00;53.50;;;;;;5057140;28;20389;-75
2020/12/11 04:40:25;;;;;;;23.92;15.80;;;2.90;53.90;;;;;;5054116;28;20467;-74
2020/12/11 04:42:51;;;;;;;26.43;16.63;;;2.90;54.20;;;;;;5051700;28;20385;-74
2020/12/11 04:45:17;;;;;;;25.67;16.95;;;2.90;54.60;;;;;;5047920;28;20399;-74
2020/12/11 04:47:43;;;;;;;26.97;17.90;;;2.80;54.30;;;;;;5032770;28;20485;-74
2020/12/11 04:50:12;;;;;;;24.30;16.47;;;2.70;55.60;;;;;;5033027;28;20903;-74
2020/12/11 04:52:41;;;;;;;25.08;16.38;;;2.70;56.30;;;;;;5032566;28;20371;-74
2020/12/11 04:55:11;;;;;;;25.87;16.90;;;2.70;55.60;;;;;;5030778;28;20387;-74
2020/12/11 04:57:52;;;;;;;24.77;16.83;;;2.60;55.90;;;;;;5030731;28;20383;-75
2020/12/11 05:00:20;;;;;;;24.50;16.42;;;2.60;56.60;;;;;;5030178;28;20492;-74
2020/12/11 05:02:46;;;;;;;23.07;16.40;;;2.50;58.00;;;;;;5030432;28;20505;-73
2020/12/11 05:05:13;;;;;;;22.52;16.13;;;2.50;58.30;;;;;;5030449;28;20383;-73
2020/12/11 05:07:40;;;;;;;24.13;16.83;;;2.50;58.00;;;;;;5040719;28;20382;-73
2020/12/11 05:10:07;;;;;;;26.35;17.70;;;2.50;57.50;;;;;;5050243;28;20437;-73
2020/12/11 05:12:34;;;;;;;27.10;17.90;;;2.40;58.20;;;;;;5050212;28;20405;-74
2020/12/11 05:15:05;;;;;;;26.30;18.15;;;2.30;58.90;;;;;;5046905;28;20394;-75
2020/12/11 05:17:34;;;;;;;26.33;18.37;;;2.30;60.20;;;;;;5050060;28;20385;-75
2020/12/11 05:20:00;;;;;;;26.77;17.20;;;2.30;60.10;;;;;;5049985;28;20390;-74
2020/12/11 05:22:30;;;;;;;28.42;18.17;;;2.30;59.80;;;;;;5050070;28;20393;-73
2020/12/11 05:24:57;;;;;;;27.13;18.00;;;2.30;59.60;;;;;;5049586;28;20382;-73
2020/12/11 05:27:38;;;;;;;29.30;18.77;;;2.40;58.80;;;;;;5046478;28;20393;-73
2020/12/11 05:30:07;;;;;;;25.75;17.52;;;2.30;59.40;;;;;;5030218;28;20399;-73
2020/12/11 05:32:52;;;;;;;26.23;17.85;;;2.40;59.60;;;;;;5030093;28;20395;-73
2020/12/11 05:35:17;;;;;;;26.73;17.48;;;2.40;59.60;;;;;;5031574;28;20389;-74
2020/12/11 05:37:46;;;;;;;26.30;17.92;;;2.50;58.40;;;;;;5050073;28;20385;-73
2020/12/11 05:40:20;;;;;;;28.42;17.23;;;2.40;58.40;;;;;;5049993;28;20385;-75
2020/12/11 05:43:17;;;;;;;25.45;16.92;;;2.40;58.80;;;;;;5049300;28;20455;-74
2020/12/11 05:45:52;;;;;;;26.75;17.73;;;2.40;58.50;;;;;;5050098;28;20571;-72
2020/12/11 05:48:19;;;;;;;26.90;17.50;;;2.40;58.10;;;;;;5048832;28;20938;-72
2020/12/11 05:50:44;;;;;;;25.83;17.48;;;2.50;58.30;;;;;;5050370;28;20382;-75
2020/12/11 05:53:10;;;;;;;27.65;17.98;;;2.50;58.70;;;;;;5050451;28;20374;-73
2020/12/11 05:55:35;;;;;;;27.80;18.43;;;2.40;59.20;;;;;;5046894;28;20441;-74
2020/12/11 05:58:02;;;;;;;25.60;17.60;;;2.50;58.40;;;;;;5029658;28;20465;-74
2020/12/11 06:00:28;;;;;;;28.02;17.83;;;2.40;58.60;;;;;;5030016;28;20387;-74
2020/12/11 06:02:55;;;;;;;30.65;17.92;;;2.40;59.40;;;;;;5029995;28;20423;-74
2020/12/11 06:05:23;;;;;;;27.63;18.60;;;2.40;58.00;;;;;;5029503;28;20479;-74
2020/12/11 06:07:50;;;;;;;28.58;17.80;;;2.40;58.60;;;;;;5040580;28;20409;-75
2020/12/11 06:10:21;;;;;;;28.13;18.70;;;2.40;58.30;;;;;;5042200;28;20396;-72
2020/12/11 06:12:47;;;;;;;28.17;18.67;;;2.40;59.20;;;;;;5029571;28;20392;-74
2020/12/11 06:15:21;;;;;;;27.65;18.20;;;2.40;59.30;;;;;;5029272;28;20391;-75
2020/12/11 06:18:10;;;;;;;26.27;17.20;;;2.30;59.90;;;;;;5028979;28;20386;-74
2020/12/11 06:20:37;;;;;;;26.15;17.88;;;2.40;59.00;;;;;;5024050;28;20395;-76
2020/12/11 06:23:26;;;;;;;26.63;18.30;;;2.50;58.00;;;;;;5029181;28;20394;-73
2020/12/11 06:26:03;;;;;;;26.63;18.08;;;2.40;58.20;;;;;;5030035;28;20472;-71
2020/12/11 06:28:34;;;;;;;26.83;18.27;;;2.40;58.60;;;;;;5032982;28;20481;-73
2020/12/11 06:31:01;;;;;;;29.38;18.48;;;2.40;58.20;;;;;;5033122;28;20749;-72
2020/12/11 06:33:31;;;;;;;32.00;17.95;;;2.50;58.60;;;;;;5032629;28;20395;-72
2020/12/11 06:35:57;;;;;;;26.65;17.80;;;2.40;58.40;;;;;;5040091;28;20396;-73
2020/12/11 06:38:49;;;;;;;26.35;18.15;;;2.40;59.80;;;;;;5044229;28;20409;-75
2020/12/11 06:41:35;;;;;;;27.73;18.30;;;2.40;59.70;;;;;;5033140;28;20929;-74
2020/12/11 06:44:09;;;;;;;26.25;18.08;;;2.50;57.50;;;;;;5031624;28;20382;-76
2020/12/11 06:46:35;;;;;;;28.17;18.42;;;2.40;58.20;;;;;;5032967;28;20383;-74
2020/12/11 06:49:20;;;;;;;28.48;18.45;;;2.40;59.10;;;;;;5032292;28;20410;-74
2020/12/11 06:51:45;;;;;;;28.25;18.38;;;2.50;59.10;;;;;;5031967;28;20437;-74
2020/12/11 06:54:19;;;;;;;28.33;18.37;;;2.50;58.80;;;;;;5031700;28;20395;-75
2020/12/11 06:57:04;;;;;;;28.13;17.92;;;2.50;59.10;;;;;;5032162;28;20379;-74
2020/12/11 06:59:41;;;;;;;26.75;18.10;;;2.50;59.80;;;;;;5032284;28;20379;-74
2020/12/11 07:02:14;;;;;;;26.27;18.20;;;2.50;59.90;;;;;;5032491;28;20696;-73
2020/12/11 07:04:42;;;;;;;27.58;18.27;;;2.40;60.30;;;;;;5032190;28;20434;-73
2020/12/11 07:07:07;;;;;;;25.65;18.25;;;2.50;60.80;;;;;;5040168;28;20492;-75
2020/12/11 07:09:40;;;;;;;25.73;18.10;;;2.60;59.10;;;;;;5051753;28;20590;-73
2020/12/11 07:12:06;;;;;;;29.63;18.33;;;2.60;58.10;;;;;;5051763;28;20882;-74
2020/12/11 07:14:32;;;;;;;26.43;17.30;;;2.70;58.60;;;;;;5051708;28;20386;-74
2020/12/11 07:16:58;;;;;;;26.05;18.00;;;2.80;57.50;;;;;;5052085;28;20392;-75
2020/12/11 07:19:23;;;;;;;25.80;17.50;;;2.80;57.20;;;;;;5051215;28;20397;-73
2020/12/11 07:21:49;;;;;;;27.40;17.83;;;2.80;56.70;;;;;;5032620;28;20390;-71
2020/12/11 07:24:15;;;;;;;25.90;17.95;;;2.80;57.60;;;;;;5030630;28;20383;-72
2020/12/11 07:26:41;;;;;;;26.65;18.17;;;2.90;56.10;;;;;;5031027;28;20441;-72
2020/12/11 07:29:10;;;;;;;29.27;18.00;;;2.90;55.70;;;;;;5030389;28;20768;-74
2020/12/11 07:31:42;;;;;;;31.27;18.90;;;2.90;56.10;;;;;;5030749;28;20478;-72
2020/12/11 07:34:18;;;;;;;26.90;18.15;;;2.90;57.30;;;;;;5032721;28;20389;-74
2020/12/11 07:36:54;;;;;;;24.85;17.15;;;2.90;56.40;;;;;;5043437;28;20435;-73
2020/12/11 07:39:20;;;;;;;32.13;17.77;;;3.10;55.20;;;;;;5030019;28;20481;-73
2020/12/11 07:41:46;;;;;;;23.88;15.90;;;3.10;54.20;;;;;;5030687;28;20394;-73
2020/12/11 07:44:24;;;;;;;25.67;17.35;;;3.20;53.60;;;;;;5030358;28;20395;-73
2020/12/11 07:46:56;;;;;;;23.65;16.25;;;3.30;53.60;;;;;;5033430;28;20391;-75
2020/12/11 07:49:44;;;;;;;25.75;16.80;;;3.30;52.10;;;;;;5040944;28;20918;-74
2020/12/11 07:52:11;;;;;;;27.15;16.58;;;3.40;52.00;;;;;;5054248;28;20382;-75
2020/12/11 07:54:42;;;;;;;21.95;16.05;;;3.40;52.40;;;;;;5054211;28;20388;-74
2020/12/11 07:57:19;;;;;;;25.33;17.27;;;3.50;51.30;;;;;;5055032;28;20392;-74
2020/12/11 08:00:03;;;;;;;25.00;15.70;;;3.60;50.00;;;;;;5053123;28;20736;-73
2020/12/11 08:02:31;;;;;;;22.95;16.20;;;3.70;49.60;;;;;;5051932;28;20381;-72
2020/12/11 08:04:57;;;;;;;23.45;15.85;;;3.80;49.30;;;;;;5032850;28;20915;-72
2020/12/11 08:07:27;;;;;;;24.13;15.88;;;3.90;48.50;;;;;;5039879;28;20815;-72
2020/12/11 08:09:53;;;;;;;22.23;14.80;;;4.00;47.60;;;;;;5032302;28;20481;-73
2020/12/11 08:12:21;;;;;;;21.23;16.17;;;4.00;47.50;;;;;;5032529;28;20402;-73
2020/12/11 08:14:47;;;;;;;22.50;15.60;;;3.90;48.50;;;;;;5031783;28;20387;-73
2020/12/11 08:17:15;;;;;;;21.98;14.73;;;3.90;48.90;;;;;;5032343;28;20395;-72
2020/12/11 08:19:41;;;;;;;21.87;15.67;;;4.10;47.80;;;;;;4989280;28;1249403;-73
2020/12/11 08:22:11;;;;;;;22.08;15.70;;;4.10;47.20;;;;;;5033419;28;20453;-74
2020/12/11 08:24:37;;;;;;;23.33;15.75;;;4.20;47.10;;;;;;5033688;28;20406;-74
2020/12/11 08:27:03;;;;;;;22.35;15.02;;;4.20;47.00;;;;;;5034214;28;20383;-74
2020/12/11 08:29:28;;;;;;;23.17;15.50;;;4.30;46.20;;;;;;5034814;28;20403;-73
2020/12/11 08:31:54;;;;;;;24.87;15.17;;;4.40;46.20;;;;;;5040131;28;20512;-75
2020/12/11 08:34:19;;;;;;;22.17;15.27;;;4.40;45.30;;;;;;5035761;28;20395;-74
2020/12/11 08:36:46;;;;;;;24.13;14.60;;;4.50;45.10;;;;;;5044529;28;20420;-74
2020/12/11 08:39:16;;;;;;;21.88;15.70;;;4.60;45.50;;;;;;5050631;28;20381;-73
2020/12/11 08:42:09;;;;;;;19.83;14.40;;;4.60;45.50;;;;;;5050816;28;20381;-73
2020/12/11 08:49:44;;;;;;;21.10;13.70;;;4.80;44.10;;;;;;5040291;28;20480;-72
2020/12/11 08:52:12;;;;;;;21.83;14.82;;;4.90;43.20;;;;;;5030580;28;20784;-72
2020/12/11 08:54:37;;;;;;;21.13;14.05;;;4.90;43.50;;;;;;5030319;28;20387;-72
2020/12/11 08:57:03;;;;;;;18.33;13.77;;;5.00;43.10;;;;;;5030710;28;20638;-73
2020/12/11 08:59:29;;;;;;;19.95;14.70;;;5.00;42.50;;;;;;5033943;28;20430;-73
2020/12/11 09:01:54;;;;;;;18.15;13.95;;;5.00;42.70;;;;;;5033122;28;20399;-73
2020/12/11 09:04:22;;;;;;;22.08;15.10;;;5.00;43.40;;;;;;5033716;28;20403;-72
2020/12/11 09:06:48;;;;;;;21.33;15.48;;;5.00;44.50;;;;;;5036809;28;20413;-74
2020/12/11 09:09:13;;;;;;;20.15;14.50;;;5.10;42.70;;;;;;5052014;28;20421;-74
2020/12/11 09:11:39;;;;;;;19.42;14.27;;;5.10;43.30;;;;;;5053599;28;20409;-73
2020/12/11 09:14:05;;;;;;;19.45;13.75;;;5.20;42.40;;;;;;5040498;28;20403;-74
2020/12/11 09:16:30;;;;;;;21.10;14.93;;;5.30;42.20;;;;;;5031947;28;20530;-73
2020/12/11 09:18:56;;;;;;;21.07;14.30;;;5.20;42.60;;;;;;5032951;28;20407;-72
2020/12/11 09:21:21;;;;;;;20.60;14.60;;;5.30;43.90;;;;;;5033332;28;20738;-75
2020/12/11 09:23:47;;;;;;;21.37;14.33;;;5.30;42.60;;;;;;5032923;28;20813;-73
2020/12/11 09:26:12;;;;;;;18.97;13.90;;;5.30;42.40;;;;;;5032791;28;20389;-74
2020/12/11 09:28:41;;;;;;;19.80;13.20;;;5.30;42.90;;;;;;5039223;28;20489;-75
2020/12/11 09:31:06;;;;;;;20.35;14.27;;;5.40;41.20;;;;;;5037232;28;20395;-75
2020/12/11 09:33:37;;;;;;;20.17;14.40;;;5.30;42.10;;;;;;5032049;28;20811;-75
2020/12/11 09:36:03;;;;;;;18.37;14.20;;;5.40;41.70;;;;;;5041569;28;20835;-75
2020/12/11 09:38:29;;;;;;;26.20;13.75;;;5.40;42.20;;;;;;5047185;28;20430;-74
2020/12/11 09:41:00;;;;;;;22.23;14.63;;;5.40;42.20;;;;;;5033124;28;20867;-76
2020/12/11 09:43:52;;;;;;;21.40;14.20;;;5.30;43.70;;;;;;5032602;28;20792;-74
2020/12/11 09:46:35;;;;;;;20.50;13.40;;;5.40;42.80;;;;;;5033311;28;20433;-74
2020/12/11 09:49:09;;;;;;;19.95;14.25;;;5.50;43.40;;;;;;5039341;28;20906;-74
2020/12/11 09:54:24;;;;;;;18.63;12.88;;;5.50;41.80;;;;;;5030903;28;20461;-76
2020/12/11 09:56:50;;;;;;;32.55;20.05;;;5.50;42.10;;;;;;5029916;28;20402;-76
2020/12/11 10:01:55;;;;;;;55.17;33.45;;;5.50;44.60;;;;;;5034731;28;20391;-75
2020/12/11 10:04:21;;;;;;;20.90;14.90;;;5.60;45.10;;;;;;5032852;28;20387;-74
2020/12/11 10:06:46;;;;;;;29.10;19.33;;;5.70;44.20;;;;;;5035483;28;20746;-73
2020/12/11 10:09:12;;;;;;;21.40;15.30;;;5.70;45.20;;;;;;5052926;28;20471;-75
2020/12/11 10:11:37;;;;;;;26.33;15.70;;;5.70;44.30;;;;;;5034657;28;20779;-73
2020/12/11 10:16:51;;;;;;;21.13;14.13;;;5.80;43.20;;;;;;5032376;28;20382;-73
2020/12/11 10:19:16;;;;;;;20.95;14.55;;;6.00;43.70;;;;;;5032399;28;20407;-73
2020/12/11 10:21:46;;;;;;;23.48;15.70;;;6.00;42.70;;;;;;5048038;28;20481;-73
2020/12/11 10:24:11;;;;;;;21.73;15.32;;;6.00;43.10;;;;;;5052474;28;20391;-74
2020/12/11 10:26:43;;;;;;;24.48;14.73;;;6.10;41.90;;;;;;5037256;28;20839;-73
2020/12/11 10:29:09;;;;;;;21.25;13.75;;;6.20;41.50;;;;;;5033605;28;20687;-74
2020/12/11 10:31:35;;;;;;;22.25;15.60;;;6.20;40.60;;;;;;5047651;28;20420;-73
2020/12/11 10:34:01;;;;;;;23.23;15.40;;;6.20;42.10;;;;;;5050234;28;20389;-73
2020/12/11 10:36:31;;;;;;;22.63;16.02;;;6.30;41.70;;;;;;5047696;28;20392;-74
2020/12/11 10:38:57;;;;;;;19.35;13.20;;;6.30;41.90;;;;;;5048691;28;20409;-73
2020/12/11 10:41:23;;;;;;;18.92;12.98;;;6.30;40.30;;;;;;5046386;28;20385;-73
2020/12/11 10:43:50;;;;;;;20.30;13.88;;;6.50;40.50;;;;;;5027191;28;20406;-72
2020/12/11 10:46:16;;;;;;;22.30;14.10;;;6.60;39.90;;;;;;5027754;28;20453;-73
2020/12/11 10:48:41;;;;;;;20.05;13.02;;;6.50;39.80;;;;;;5028541;28;20415;-72
2020/12/11 10:51:15;;;;;;;17.20;12.47;;;6.60;39.70;;;;;;5033228;28;20523;-73
2020/12/11 10:53:41;;;;;;;19.00;13.35;;;6.50;39.90;;;;;;5048052;28;20898;-73
2020/12/11 10:56:09;;;;;;;18.73;12.82;;;6.60;39.30;;;;;;5043292;28;20399;-72
2020/12/11 10:58:35;;;;;;;19.75;13.30;;;6.60;39.40;;;;;;5028384;28;20461;-73
2020/12/11 11:01:04;;;;;;;21.50;12.90;;;6.60;39.80;;;;;;5028372;28;20399;-73
2020/12/11 11:03:30;;;;;;;19.75;12.80;;;6.50;40.60;;;;;;5028792;28;20606;-73
2020/12/11 11:06:00;;;;;;;20.30;12.40;;;6.50;40.20;;;;;;5028244;28;20764;-72
2020/12/11 11:08:34;;;;;;;20.98;13.32;;;6.50;40.60;;;;;;5042722;28;20755;-72
2020/12/11 11:11:00;;;;;;;16.80;12.57;;;6.50;40.10;;;;;;5031932;28;20438;-73
2020/12/11 11:14:18;;;;;;;16.90;12.37;;;6.40;40.40;;;;;;5031272;28;20888;-73
2020/12/11 11:16:13;;;;;;;17.88;12.25;;;6.40;40.10;;;;;;5030868;28;20838;-73
2020/12/11 11:21:28;;;;;;;17.30;12.03;;;6.40;40.10;;;;;;5031930;28;20395;-73
2020/12/11 11:24:13;;;;;;;16.85;12.38;;;6.30;41.80;;;;;;5030326;28;20445;-75
2020/12/11 11:26:47;;;;;;;19.17;13.00;;;6.10;42.30;;;;;;5032682;28;20573;-73
2020/12/11 11:29:12;;;;;;;18.20;12.47;;;6.20;43.00;;;;;;5031772;28;20414;-73
2020/12/11 11:31:38;;;;;;;21.83;12.77;;;6.10;43.00;;;;;;5032010;28;20383;-74
2020/12/11 11:34:05;;;;;;;17.02;12.25;;;6.20;42.10;;;;;;5039567;28;20389;-73
2020/12/11 11:36:31;;;;;;;19.63;12.63;;;6.20;42.60;;;;;;5051569;28;20393;-75
2020/12/11 11:38:57;;;;;;;15.80;12.07;;;6.20;42.10;;;;;;5044050;28;20395;-74
2020/12/11 11:44:36;;;;;;;15.50;12.00;;;6.20;43.40;;;;;;5034622;28;20390;-75
2020/12/11 11:47:03;;;;;;;15.98;12.52;;;6.10;45.00;;;;;;5041368;28;20750;-75
2020/12/11 11:49:36;;;;;;;21.58;13.65;;;6.10;46.00;;;;;;5042605;28;20844;-74
2020/12/11 11:52:21;;;;;;;16.23;12.35;;;6.10;45.00;;;;;;5050928;28;20393;-74
2020/12/11 11:54:46;;;;;;;18.13;11.65;;;6.00;45.70;;;;;;5049561;28;20393;-74
2020/12/11 11:57:12;;;;;;;15.80;11.73;;;6.10;45.70;;;;;;5047663;28;21122;-74
2020/12/11 11:59:37;;;;;;;16.83;12.00;;;6.00;46.20;;;;;;5040180;28;20395;-74
2020/12/11 12:02:03;;;;;;;16.10;11.60;;;6.10;46.10;;;;;;5031036;28;20486;-73
2020/12/11 12:04:29;;;;;;;16.70;11.60;;;6.20;47.40;;;;;;5031148;28;20779;-76
2020/12/11 12:06:56;;;;;;;17.37;12.67;;;6.10;46.80;;;;;;5038814;28;20960;-75
2020/12/11 12:09:21;;;;;;;15.85;11.32;;;6.20;49.00;;;;;;5046817;28;20475;-75
2020/12/11 12:11:47;;;;;;;14.90;11.23;;;6.20;47.60;;;;;;5040492;28;20395;-75
2020/12/11 12:14:13;;;;;;;15.40;11.30;;;6.30;46.60;;;;;;5031450;28;20395;-76
2020/12/11 12:16:40;;;;;;;17.23;12.20;;;6.20;46.80;;;;;;5045822;28;20423;-75
2020/12/11 12:19:10;;;;;;;14.38;11.10;;;6.30;47.70;;;;;;5032548;28;20884;-73
2020/12/11 12:29:33;;;;;;;16.50;11.15;;;6.50;46.00;;;;;;5050663;28;20463;-74
2020/12/11 12:32:12;;;;;;;14.90;10.68;;;6.50;45.80;;;;;;5048183;28;20393;-74
2020/12/11 12:45:16;;;;;;;14.35;10.73;;;6.50;46.80;;;;;;5030438;28;20394;-75
2020/12/11 12:47:41;;;;;;;14.53;10.93;;;6.50;47.10;;;;;;5032212;28;20395;-74
2020/12/11 12:50:09;;;;;;;13.27;10.57;;;6.40;46.40;;;;;;5029285;28;20391;-75
2020/12/11 12:52:36;;;;;;;15.97;11.27;;;6.50;46.80;;;;;;5030669;28;20479;-72
2020/12/11 12:55:01;;;;;;;14.15;11.00;;;6.50;45.50;;;;;;5030459;28;20394;-77
2020/12/11 13:05:23;;;;;;;15.75;10.68;;;6.50;46.30;;;;;;5029511;28;20493;-71
2020/12/11 13:07:49;;;;;;;13.82;11.00;;;6.50;47.00;;;;;;5041030;28;20488;-73
2020/12/11 13:10:15;;;;;;;15.43;10.63;;;6.60;45.70;;;;;;5033240;28;20474;-71
2020/12/11 13:12:43;;;;;;;16.45;11.30;;;6.50;46.50;;;;;;5029597;28;20877;-73
2020/12/11 13:15:09;;;;;;;14.50;10.93;;;6.50;47.70;;;;;;5029612;28;20788;-74
2020/12/11 13:17:34;;;;;;;15.82;11.70;;;6.50;47.10;;;;;;5038026;28;20409;-74
2020/12/11 13:20:02;;;;;;;14.50;10.70;;;6.60;47.20;;;;;;5046207;28;20393;-74
2020/12/11 13:27:44;;;;;;;16.70;10.45;;;6.80;45.20;;;;;;5044785;28;20429;-74
2020/12/11 13:30:11;;;;;;;14.13;10.27;;;6.80;45.20;;;;;;5049510;28;20843;-73
2020/12/11 13:32:36;;;;;;;15.85;10.45;;;6.80;45.80;;;;;;5032388;28;20383;-74